sensor_id;sensor_type;location;lat;lon;timestamp;temperature;humidity
837;DHT22;400;53.550;9.932;2022-07-23T00:00:18;18.20;99.90
837;DHT22;400;53.550;9.932;2022-07-23T00:02:45;18.40;99.90
837;DHT22;400;53.550;9.932;2022-07-23T00:05:13;18.50;99.90
837;DHT22;400;53.550;9.932;2022-07-23T00:07:40;18.30;99.90
837;DHT22;400;53.550;9.932;2022-07-23T00:10:13;18.40;99.90
837;DHT22;400;53.550;9.932;2022-07-23T00:12:40;18.50;99.90
837;DHT22;400;53.550;9.932;2022-07-23T00:15:10;18.60;99.90
837;DHT22;400;53.550;9.932;2022-07-23T00:17:37;18.70;99.90
837;DHT22;400;53.550;9.932;2022-07-23T00:20:05;18.80;99.90
837;DHT22;400;53.550;9.932;2022-07-23T00:22:34;18.60;99.90
837;DHT22;400;53.550;9.932;2022-07-23T00:25:01;18.40;99.90
837;DHT22;400;53.550;9.932;2022-07-23T00:27:28;18.20;99.90
837;DHT22;400;53.550;9.932;2022-07-23T00:30:00;18.30;99.90
837;DHT22;400;53.550;9.932;2022-07-23T00:32:27;18.00;99.90
837;DHT22;400;53.550;9.932;2022-07-23T00:34:54;18.10;99.90
837;DHT22;400;53.550;9.932;2022-07-23T00:37:21;18.00;99.90
837;DHT22;400;53.550;9.932;2022-07-23T00:39:55;18.00;99.90
837;DHT22;400;53.550;9.932;2022-07-23T00:42:25;17.90;99.90
837;DHT22;400;53.550;9.932;2022-07-23T00:44:52;18.00;99.90
837;DHT22;400;53.550;9.932;2022-07-23T00:47:19;17.90;99.90
837;DHT22;400;53.550;9.932;2022-07-23T00:49:48;17.90;99.90
837;DHT22;400;53.550;9.932;2022-07-23T00:52:15;17.80;99.90
837;DHT22;400;53.550;9.932;2022-07-23T00:54:45;17.70;99.90
837;DHT22;400;53.550;9.932;2022-07-23T00:57:15;17.60;99.90
837;DHT22;400;53.550;9.932;2022-07-23T00:59:42;17.90;99.90
837;DHT22;400;53.550;9.932;2022-07-23T01:02:10;17.80;99.90
837;DHT22;400;53.550;9.932;2022-07-23T01:04:37;17.80;99.90
837;DHT22;400;53.550;9.932;2022-07-23T01:07:07;17.70;99.90
837;DHT22;400;53.550;9.932;2022-07-23T01:09:34;17.60;99.90
837;DHT22;400;53.550;9.932;2022-07-23T01:12:01;17.60;99.90
837;DHT22;400;53.550;9.932;2022-07-23T01:14:32;17.60;99.90
837;DHT22;400;53.550;9.932;2022-07-23T01:16:59;17.70;99.90
837;DHT22;400;53.550;9.932;2022-07-23T01:19:29;17.70;99.90
837;DHT22;400;53.550;9.932;2022-07-23T01:21:57;17.90;99.90
837;DHT22;400;53.550;9.932;2022-07-23T01:24:27;17.80;99.90
837;DHT22;400;53.550;9.932;2022-07-23T01:26:54;17.80;99.90
837;DHT22;400;53.550;9.932;2022-07-23T01:29:21;17.80;99.90
837;DHT22;400;53.550;9.932;2022-07-23T01:31:49;17.70;99.90
837;DHT22;400;53.550;9.932;2022-07-23T01:34:16;17.90;99.90
837;DHT22;400;53.550;9.932;2022-07-23T01:36:43;18.10;99.90
837;DHT22;400;53.550;9.932;2022-07-23T01:39:10;18.00;99.90
837;DHT22;400;53.550;9.932;2022-07-23T01:41:39;17.80;99.90
837;DHT22;400;53.550;9.932;2022-07-23T01:44:08;17.80;99.90
837;DHT22;400;53.550;9.932;2022-07-23T01:46:38;17.70;99.90
837;DHT22;400;53.550;9.932;2022-07-23T01:49:05;17.70;99.90
837;DHT22;400;53.550;9.932;2022-07-23T01:51:31;17.50;99.90
837;DHT22;400;53.550;9.932;2022-07-23T01:53:59;17.50;99.90
837;DHT22;400;53.550;9.932;2022-07-23T01:56:26;17.50;99.90
837;DHT22;400;53.550;9.932;2022-07-23T01:58:54;17.40;99.90
837;DHT22;400;53.550;9.932;2022-07-23T02:01:21;17.40;99.90
837;DHT22;400;53.550;9.932;2022-07-23T02:03:50;17.30;99.90
837;DHT22;400;53.550;9.932;2022-07-23T02:06:17;17.20;99.90
837;DHT22;400;53.550;9.932;2022-07-23T02:08:52;17.20;99.90
837;DHT22;400;53.550;9.932;2022-07-23T02:11:27;17.10;99.90
837;DHT22;400;53.550;9.932;2022-07-23T02:13:55;17.10;99.90
837;DHT22;400;53.550;9.932;2022-07-23T02:16:22;17.10;99.90
837;DHT22;400;53.550;9.932;2022-07-23T02:18:51;17.10;99.90
837;DHT22;400;53.550;9.932;2022-07-23T02:21:18;17.20;99.90
837;DHT22;400;53.550;9.932;2022-07-23T02:23:48;17.20;99.90
837;DHT22;400;53.550;9.932;2022-07-23T02:26:15;17.10;99.90
837;DHT22;400;53.550;9.932;2022-07-23T02:28:44;17.10;99.90
837;DHT22;400;53.550;9.932;2022-07-23T02:31:14;17.10;99.90
837;DHT22;400;53.550;9.932;2022-07-23T02:33:41;17.00;99.90
837;DHT22;400;53.550;9.932;2022-07-23T02:36:08;17.00;99.90
837;DHT22;400;53.550;9.932;2022-07-23T02:38:35;17.00;99.90
837;DHT22;400;53.550;9.932;2022-07-23T02:41:04;17.10;99.90
837;DHT22;400;53.550;9.932;2022-07-23T02:43:31;17.10;99.90
837;DHT22;400;53.550;9.932;2022-07-23T02:45:58;17.10;99.90
837;DHT22;400;53.550;9.932;2022-07-23T02:48:27;17.00;99.90
837;DHT22;400;53.550;9.932;2022-07-23T02:50:59;16.90;99.90
837;DHT22;400;53.550;9.932;2022-07-23T02:53:26;16.90;99.90
837;DHT22;400;53.550;9.932;2022-07-23T02:55:53;16.90;99.90
837;DHT22;400;53.550;9.932;2022-07-23T02:58:19;16.90;99.90
837;DHT22;400;53.550;9.932;2022-07-23T03:00:47;17.00;99.90
837;DHT22;400;53.550;9.932;2022-07-23T03:03:13;17.00;99.90
837;DHT22;400;53.550;9.932;2022-07-23T03:05:42;17.00;99.90
837;DHT22;400;53.550;9.932;2022-07-23T03:08:08;17.00;99.90
837;DHT22;400;53.550;9.932;2022-07-23T03:10:36;16.90;99.90
837;DHT22;400;53.550;9.932;2022-07-23T03:13:03;16.80;99.90
837;DHT22;400;53.550;9.932;2022-07-23T03:15:32;16.80;99.90
837;DHT22;400;53.550;9.932;2022-07-23T03:17:58;16.80;99.90
837;DHT22;400;53.550;9.932;2022-07-23T03:20:25;16.80;99.90
837;DHT22;400;53.550;9.932;2022-07-23T03:22:53;16.80;99.90
837;DHT22;400;53.550;9.932;2022-07-23T03:25:22;16.90;99.90
837;DHT22;400;53.550;9.932;2022-07-23T03:27:51;17.00;99.90
837;DHT22;400;53.550;9.932;2022-07-23T03:30:18;16.90;99.90
837;DHT22;400;53.550;9.932;2022-07-23T03:32:47;16.90;99.90
837;DHT22;400;53.550;9.932;2022-07-23T03:35:16;16.80;99.90
837;DHT22;400;53.550;9.932;2022-07-23T03:37:43;16.80;99.90
837;DHT22;400;53.550;9.932;2022-07-23T03:40:12;16.80;99.90
837;DHT22;400;53.550;9.932;2022-07-23T03:42:38;16.90;99.90
837;DHT22;400;53.550;9.932;2022-07-23T03:45:08;16.80;99.90
837;DHT22;400;53.550;9.932;2022-07-23T03:47:35;16.90;99.90
837;DHT22;400;53.550;9.932;2022-07-23T03:50:02;17.10;99.90
837;DHT22;400;53.550;9.932;2022-07-23T03:52:29;17.00;99.90
837;DHT22;400;53.550;9.932;2022-07-23T03:54:57;17.10;99.90
837;DHT22;400;53.550;9.932;2022-07-23T03:57:25;17.00;99.90
837;DHT22;400;53.550;9.932;2022-07-23T03:59:52;17.00;99.90
837;DHT22;400;53.550;9.932;2022-07-23T04:02:19;17.00;99.90
837;DHT22;400;53.550;9.932;2022-07-23T04:04:46;17.10;99.90
837;DHT22;400;53.550;9.932;2022-07-23T04:07:13;17.00;99.90
837;DHT22;400;53.550;9.932;2022-07-23T04:09:40;17.00;99.90
837;DHT22;400;53.550;9.932;2022-07-23T04:12:07;17.00;99.90
837;DHT22;400;53.550;9.932;2022-07-23T04:14:37;17.10;99.90
837;DHT22;400;53.550;9.932;2022-07-23T04:17:04;17.10;99.90
837;DHT22;400;53.550;9.932;2022-07-23T04:19:30;17.20;99.90
837;DHT22;400;53.550;9.932;2022-07-23T04:21:58;17.40;99.90
837;DHT22;400;53.550;9.932;2022-07-23T04:24:25;17.50;99.90
837;DHT22;400;53.550;9.932;2022-07-23T04:26:52;17.60;99.90
837;DHT22;400;53.550;9.932;2022-07-23T04:29:19;17.70;99.90
837;DHT22;400;53.550;9.932;2022-07-23T04:31:47;17.80;99.90
837;DHT22;400;53.550;9.932;2022-07-23T04:34:14;17.80;99.90
837;DHT22;400;53.550;9.932;2022-07-23T04:36:41;17.90;99.90
837;DHT22;400;53.550;9.932;2022-07-23T04:39:08;17.60;99.90
837;DHT22;400;53.550;9.932;2022-07-23T04:41:35;17.50;99.90
837;DHT22;400;53.550;9.932;2022-07-23T04:44:03;17.30;99.90
837;DHT22;400;53.550;9.932;2022-07-23T04:46:30;17.20;99.90
837;DHT22;400;53.550;9.932;2022-07-23T04:48:58;17.00;99.90
837;DHT22;400;53.550;9.932;2022-07-23T04:51:25;16.80;99.90
837;DHT22;400;53.550;9.932;2022-07-23T04:53:52;16.70;99.90
837;DHT22;400;53.550;9.932;2022-07-23T04:56:19;16.60;99.90
837;DHT22;400;53.550;9.932;2022-07-23T04:58:46;16.50;99.90
837;DHT22;400;53.550;9.932;2022-07-23T05:01:13;16.60;99.90
837;DHT22;400;53.550;9.932;2022-07-23T05:03:40;16.80;99.90
837;DHT22;400;53.550;9.932;2022-07-23T05:06:09;16.70;99.90
837;DHT22;400;53.550;9.932;2022-07-23T05:08:36;16.70;99.90
837;DHT22;400;53.550;9.932;2022-07-23T05:11:03;16.80;99.90
837;DHT22;400;53.550;9.932;2022-07-23T05:13:29;16.90;99.90
837;DHT22;400;53.550;9.932;2022-07-23T05:15:56;17.00;99.90
837;DHT22;400;53.550;9.932;2022-07-23T05:18:24;16.90;99.90
837;DHT22;400;53.550;9.932;2022-07-23T05:20:53;17.00;99.90
837;DHT22;400;53.550;9.932;2022-07-23T05:23:22;17.00;99.90
837;DHT22;400;53.550;9.932;2022-07-23T05:25:49;17.10;99.90
837;DHT22;400;53.550;9.932;2022-07-23T05:28:16;17.20;99.90
837;DHT22;400;53.550;9.932;2022-07-23T05:30:43;17.30;99.90
837;DHT22;400;53.550;9.932;2022-07-23T05:33:10;17.30;99.90
837;DHT22;400;53.550;9.932;2022-07-23T05:35:37;17.10;99.90
837;DHT22;400;53.550;9.932;2022-07-23T05:38:04;17.20;99.90
837;DHT22;400;53.550;9.932;2022-07-23T05:40:32;17.40;99.90
837;DHT22;400;53.550;9.932;2022-07-23T05:42:59;17.40;99.90
837;DHT22;400;53.550;9.932;2022-07-23T05:45:26;17.50;99.90
837;DHT22;400;53.550;9.932;2022-07-23T05:47:53;17.50;99.90
837;DHT22;400;53.550;9.932;2022-07-23T05:50:20;17.60;99.90
837;DHT22;400;53.550;9.932;2022-07-23T05:52:47;17.70;99.90
837;DHT22;400;53.550;9.932;2022-07-23T05:55:14;17.90;99.90
837;DHT22;400;53.550;9.932;2022-07-23T05:57:42;18.00;99.90
837;DHT22;400;53.550;9.932;2022-07-23T06:00:10;17.80;99.90
837;DHT22;400;53.550;9.932;2022-07-23T06:02:38;17.70;99.90
837;DHT22;400;53.550;9.932;2022-07-23T06:05:06;17.80;99.90
837;DHT22;400;53.550;9.932;2022-07-23T06:07:33;17.70;99.90
837;DHT22;400;53.550;9.932;2022-07-23T06:10:00;17.70;99.90
837;DHT22;400;53.550;9.932;2022-07-23T06:12:27;17.50;99.90
837;DHT22;400;53.550;9.932;2022-07-23T06:14:56;17.50;99.90
837;DHT22;400;53.550;9.932;2022-07-23T06:17:23;17.50;99.90
837;DHT22;400;53.550;9.932;2022-07-23T06:19:49;17.50;99.90
837;DHT22;400;53.550;9.932;2022-07-23T06:22:16;17.60;99.90
837;DHT22;400;53.550;9.932;2022-07-23T06:24:44;17.50;99.90
837;DHT22;400;53.550;9.932;2022-07-23T06:27:12;17.60;99.90
837;DHT22;400;53.550;9.932;2022-07-23T06:29:39;17.70;99.90
837;DHT22;400;53.550;9.932;2022-07-23T06:32:08;17.90;99.90
837;DHT22;400;53.550;9.932;2022-07-23T06:34:35;17.70;99.90
837;DHT22;400;53.550;9.932;2022-07-23T06:37:02;17.60;99.90
837;DHT22;400;53.550;9.932;2022-07-23T06:39:28;17.60;99.90
837;DHT22;400;53.550;9.932;2022-07-23T06:41:55;17.50;99.90
837;DHT22;400;53.550;9.932;2022-07-23T06:44:25;17.20;99.90
837;DHT22;400;53.550;9.932;2022-07-23T06:46:55;17.40;99.90
837;DHT22;400;53.550;9.932;2022-07-23T06:49:25;17.10;99.90
837;DHT22;400;53.550;9.932;2022-07-23T06:51:52;17.10;99.90
837;DHT22;400;53.550;9.932;2022-07-23T06:54:19;17.40;99.90
837;DHT22;400;53.550;9.932;2022-07-23T06:56:46;17.40;99.90
837;DHT22;400;53.550;9.932;2022-07-23T06:59:12;17.40;99.90
837;DHT22;400;53.550;9.932;2022-07-23T07:01:41;17.40;99.90
837;DHT22;400;53.550;9.932;2022-07-23T07:04:08;17.40;99.90
837;DHT22;400;53.550;9.932;2022-07-23T07:06:36;17.50;99.90
837;DHT22;400;53.550;9.932;2022-07-23T07:09:03;17.60;99.90
837;DHT22;400;53.550;9.932;2022-07-23T07:11:30;17.70;99.90
837;DHT22;400;53.550;9.932;2022-07-23T07:13:58;17.80;99.90
837;DHT22;400;53.550;9.932;2022-07-23T07:16:26;17.80;99.90
837;DHT22;400;53.550;9.932;2022-07-23T07:18:53;17.60;99.90
837;DHT22;400;53.550;9.932;2022-07-23T07:21:20;17.30;99.90
837;DHT22;400;53.550;9.932;2022-07-23T07:23:48;17.20;99.90
837;DHT22;400;53.550;9.932;2022-07-23T07:26:15;17.30;99.90
837;DHT22;400;53.550;9.932;2022-07-23T07:28:42;17.30;99.90
837;DHT22;400;53.550;9.932;2022-07-23T07:31:08;17.40;99.90
837;DHT22;400;53.550;9.932;2022-07-23T07:33:35;17.50;99.90
837;DHT22;400;53.550;9.932;2022-07-23T07:36:03;17.60;99.90
837;DHT22;400;53.550;9.932;2022-07-23T07:38:30;17.50;99.90
837;DHT22;400;53.550;9.932;2022-07-23T07:40:58;17.50;99.90
837;DHT22;400;53.550;9.932;2022-07-23T07:43:25;17.50;99.90
837;DHT22;400;53.550;9.932;2022-07-23T07:45:52;17.50;99.90
837;DHT22;400;53.550;9.932;2022-07-23T07:48:19;17.50;99.90
837;DHT22;400;53.550;9.932;2022-07-23T07:50:47;17.50;99.90
837;DHT22;400;53.550;9.932;2022-07-23T07:53:15;17.70;99.90
837;DHT22;400;53.550;9.932;2022-07-23T07:55:43;17.90;99.90
837;DHT22;400;53.550;9.932;2022-07-23T07:58:12;17.90;99.90
837;DHT22;400;53.550;9.932;2022-07-23T08:00:39;17.90;99.90
837;DHT22;400;53.550;9.932;2022-07-23T08:03:09;18.10;99.90
837;DHT22;400;53.550;9.932;2022-07-23T08:05:37;18.20;99.90
837;DHT22;400;53.550;9.932;2022-07-23T08:08:04;18.30;99.90
837;DHT22;400;53.550;9.932;2022-07-23T08:10:31;18.10;99.90
837;DHT22;400;53.550;9.932;2022-07-23T08:12:59;18.10;99.90
837;DHT22;400;53.550;9.932;2022-07-23T08:15:29;18.20;99.90
837;DHT22;400;53.550;9.932;2022-07-23T08:17:56;18.10;99.90
837;DHT22;400;53.550;9.932;2022-07-23T08:20:24;17.80;99.90
837;DHT22;400;53.550;9.932;2022-07-23T08:22:56;17.70;99.90
837;DHT22;400;53.550;9.932;2022-07-23T08:25:29;17.30;99.90
837;DHT22;400;53.550;9.932;2022-07-23T08:28:01;17.20;99.90
837;DHT22;400;53.550;9.932;2022-07-23T08:30:33;17.00;99.90
837;DHT22;400;53.550;9.932;2022-07-23T08:33:02;16.90;99.90
837;DHT22;400;53.550;9.932;2022-07-23T08:35:31;16.90;99.90
837;DHT22;400;53.550;9.932;2022-07-23T08:37:59;17.10;99.90
837;DHT22;400;53.550;9.932;2022-07-23T08:40:27;17.20;99.90
837;DHT22;400;53.550;9.932;2022-07-23T08:42:55;17.30;99.90
837;DHT22;400;53.550;9.932;2022-07-23T08:45:25;17.40;99.90
837;DHT22;400;53.550;9.932;2022-07-23T08:47:55;17.50;99.90
837;DHT22;400;53.550;9.932;2022-07-23T08:50:23;17.70;99.90
837;DHT22;400;53.550;9.932;2022-07-23T08:52:51;17.80;99.90
837;DHT22;400;53.550;9.932;2022-07-23T08:55:20;18.20;99.90
837;DHT22;400;53.550;9.932;2022-07-23T08:57:49;18.30;99.90
837;DHT22;400;53.550;9.932;2022-07-23T09:00:19;18.30;99.90
837;DHT22;400;53.550;9.932;2022-07-23T09:02:47;18.70;99.90
837;DHT22;400;53.550;9.932;2022-07-23T09:05:16;18.50;99.90
837;DHT22;400;53.550;9.932;2022-07-23T09:08:14;18.60;99.90
837;DHT22;400;53.550;9.932;2022-07-23T09:10:50;18.80;99.90
837;DHT22;400;53.550;9.932;2022-07-23T09:13:32;18.50;99.90
837;DHT22;400;53.550;9.932;2022-07-23T09:16:03;18.50;99.90
837;DHT22;400;53.550;9.932;2022-07-23T09:18:36;18.40;99.90
837;DHT22;400;53.550;9.932;2022-07-23T09:21:12;18.60;99.90
837;DHT22;400;53.550;9.932;2022-07-23T09:23:43;18.50;99.90
837;DHT22;400;53.550;9.932;2022-07-23T09:26:23;18.70;99.90
837;DHT22;400;53.550;9.932;2022-07-23T09:28:54;18.60;99.90
837;DHT22;400;53.550;9.932;2022-07-23T09:31:21;18.70;99.90
837;DHT22;400;53.550;9.932;2022-07-23T09:33:50;18.90;99.90
837;DHT22;400;53.550;9.932;2022-07-23T09:36:30;18.90;99.90
837;DHT22;400;53.550;9.932;2022-07-23T09:38:58;19.10;99.90
837;DHT22;400;53.550;9.932;2022-07-23T09:41:34;19.00;99.90
837;DHT22;400;53.550;9.932;2022-07-23T09:44:11;19.10;99.90
837;DHT22;400;53.550;9.932;2022-07-23T09:46:38;19.10;99.90
837;DHT22;400;53.550;9.932;2022-07-23T09:49:27;19.30;99.90
837;DHT22;400;53.550;9.932;2022-07-23T09:51:58;19.20;99.90
837;DHT22;400;53.550;9.932;2022-07-23T09:54:29;19.30;99.90
837;DHT22;400;53.550;9.932;2022-07-23T09:57:02;19.20;99.90
837;DHT22;400;53.550;9.932;2022-07-23T09:59:35;19.30;99.90
837;DHT22;400;53.550;9.932;2022-07-23T10:02:05;19.20;99.90
837;DHT22;400;53.550;9.932;2022-07-23T10:04:36;19.20;99.90
837;DHT22;400;53.550;9.932;2022-07-23T10:07:09;19.20;99.90
837;DHT22;400;53.550;9.932;2022-07-23T10:09:42;19.20;99.90
837;DHT22;400;53.550;9.932;2022-07-23T10:12:13;18.90;99.90
837;DHT22;400;53.550;9.932;2022-07-23T10:15:10;18.80;99.90
837;DHT22;400;53.550;9.932;2022-07-23T10:17:39;18.90;99.90
837;DHT22;400;53.550;9.932;2022-07-23T10:20:06;19.20;99.90
837;DHT22;400;53.550;9.932;2022-07-23T10:22:35;19.20;99.90
837;DHT22;400;53.550;9.932;2022-07-23T10:25:09;19.10;99.90
837;DHT22;400;53.550;9.932;2022-07-23T10:30:40;19.00;99.90
837;DHT22;400;53.550;9.932;2022-07-23T10:33:17;19.10;99.90
837;DHT22;400;53.550;9.932;2022-07-23T10:35:55;19.20;99.90
837;DHT22;400;53.550;9.932;2022-07-23T10:38:26;19.50;99.90
837;DHT22;400;53.550;9.932;2022-07-23T10:40:57;19.70;99.90
837;DHT22;400;53.550;9.932;2022-07-23T10:43:24;19.60;99.90
837;DHT22;400;53.550;9.932;2022-07-23T10:45:55;19.80;99.90
837;DHT22;400;53.550;9.932;2022-07-23T10:48:29;19.90;99.90
837;DHT22;400;53.550;9.932;2022-07-23T10:51:09;19.90;99.90
837;DHT22;400;53.550;9.932;2022-07-23T10:53:55;20.20;99.90
837;DHT22;400;53.550;9.932;2022-07-23T10:57:04;20.30;99.90
837;DHT22;400;53.550;9.932;2022-07-23T11:02:54;20.40;99.90
837;DHT22;400;53.550;9.932;2022-07-23T11:05:24;20.30;99.90
837;DHT22;400;53.550;9.932;2022-07-23T11:08:25;20.10;99.90
837;DHT22;400;53.550;9.932;2022-07-23T11:10:56;20.20;99.90
837;DHT22;400;53.550;9.932;2022-07-23T11:13:48;20.10;99.90
837;DHT22;400;53.550;9.932;2022-07-23T11:16:18;20.00;99.90
837;DHT22;400;53.550;9.932;2022-07-23T11:21:50;20.30;99.90
837;DHT22;400;53.550;9.932;2022-07-23T11:24:23;20.80;99.90
837;DHT22;400;53.550;9.932;2022-07-23T11:27:03;21.00;99.90
837;DHT22;400;53.550;9.932;2022-07-23T11:29:46;21.00;99.90
837;DHT22;400;53.550;9.932;2022-07-23T11:32:36;21.00;99.90
837;DHT22;400;53.550;9.932;2022-07-23T11:35:23;21.10;99.90
837;DHT22;400;53.550;9.932;2022-07-23T11:37:53;21.10;99.90
837;DHT22;400;53.550;9.932;2022-07-23T11:40:24;21.20;99.90
837;DHT22;400;53.550;9.932;2022-07-23T11:42:57;21.00;99.90
837;DHT22;400;53.550;9.932;2022-07-23T11:45:29;20.90;99.90
837;DHT22;400;53.550;9.932;2022-07-23T11:47:56;20.90;99.90
837;DHT22;400;53.550;9.932;2022-07-23T11:50:24;20.60;99.90
837;DHT22;400;53.550;9.932;2022-07-23T11:52:53;20.40;99.90
837;DHT22;400;53.550;9.932;2022-07-23T11:55:21;20.00;99.90
837;DHT22;400;53.550;9.932;2022-07-23T11:57:52;19.70;99.90
837;DHT22;400;53.550;9.932;2022-07-23T12:00:21;19.70;99.90
837;DHT22;400;53.550;9.932;2022-07-23T12:02:51;19.50;99.90
837;DHT22;400;53.550;9.932;2022-07-23T12:05:20;19.60;99.90
837;DHT22;400;53.550;9.932;2022-07-23T12:07:51;19.40;99.90
837;DHT22;400;53.550;9.932;2022-07-23T12:10:21;19.50;99.90
837;DHT22;400;53.550;9.932;2022-07-23T12:12:50;19.60;99.90
837;DHT22;400;53.550;9.932;2022-07-23T12:15:19;19.60;99.90
837;DHT22;400;53.550;9.932;2022-07-23T12:17:49;19.60;99.90
837;DHT22;400;53.550;9.932;2022-07-23T12:20:20;19.50;99.90
837;DHT22;400;53.550;9.932;2022-07-23T12:22:58;19.50;99.90
837;DHT22;400;53.550;9.932;2022-07-23T12:25:30;19.40;99.90
837;DHT22;400;53.550;9.932;2022-07-23T12:28:02;19.50;99.90
837;DHT22;400;53.550;9.932;2022-07-23T12:30:31;19.60;99.90
837;DHT22;400;53.550;9.932;2022-07-23T12:32:59;19.60;99.90
837;DHT22;400;53.550;9.932;2022-07-23T12:35:32;19.60;99.90
837;DHT22;400;53.550;9.932;2022-07-23T12:38:03;19.80;99.90
837;DHT22;400;53.550;9.932;2022-07-23T12:40:32;19.80;99.90
837;DHT22;400;53.550;9.932;2022-07-23T12:43:02;20.00;99.90
837;DHT22;400;53.550;9.932;2022-07-23T12:45:42;20.20;99.90
837;DHT22;400;53.550;9.932;2022-07-23T12:48:16;20.20;99.90
837;DHT22;400;53.550;9.932;2022-07-23T12:50:56;20.10;99.90
837;DHT22;400;53.550;9.932;2022-07-23T12:53:28;20.00;99.90
837;DHT22;400;53.550;9.932;2022-07-23T12:56:02;20.10;99.90
837;DHT22;400;53.550;9.932;2022-07-23T12:58:41;20.10;99.90
837;DHT22;400;53.550;9.932;2022-07-23T13:01:23;20.30;99.90
837;DHT22;400;53.550;9.932;2022-07-23T13:04:02;20.10;99.90
837;DHT22;400;53.550;9.932;2022-07-23T13:06:34;20.10;99.90
837;DHT22;400;53.550;9.932;2022-07-23T13:09:04;20.20;99.90
837;DHT22;400;53.550;9.932;2022-07-23T13:11:32;20.10;99.90
837;DHT22;400;53.550;9.932;2022-07-23T13:14:00;20.20;99.90
837;DHT22;400;53.550;9.932;2022-07-23T13:16:31;20.50;99.90
837;DHT22;400;53.550;9.932;2022-07-23T13:19:02;20.40;99.90
837;DHT22;400;53.550;9.932;2022-07-23T13:21:32;20.20;99.90
837;DHT22;400;53.550;9.932;2022-07-23T13:24:00;20.40;99.90
837;DHT22;400;53.550;9.932;2022-07-23T13:26:31;20.40;99.90
837;DHT22;400;53.550;9.932;2022-07-23T13:28:58;20.60;99.90
837;DHT22;400;53.550;9.932;2022-07-23T13:31:25;20.70;99.90
837;DHT22;400;53.550;9.932;2022-07-23T13:33:55;20.50;99.90
837;DHT22;400;53.550;9.932;2022-07-23T13:36:26;20.70;99.90
837;DHT22;400;53.550;9.932;2022-07-23T13:38:58;20.80;99.90
837;DHT22;400;53.550;9.932;2022-07-23T13:41:32;20.60;99.90
837;DHT22;400;53.550;9.932;2022-07-23T13:44:00;20.40;99.90
837;DHT22;400;53.550;9.932;2022-07-23T13:46:29;20.60;99.90
837;DHT22;400;53.550;9.932;2022-07-23T13:49:06;20.70;99.90
837;DHT22;400;53.550;9.932;2022-07-23T13:51:32;20.50;99.90
837;DHT22;400;53.550;9.932;2022-07-23T13:54:03;20.50;99.90
837;DHT22;400;53.550;9.932;2022-07-23T13:56:32;20.60;99.90
837;DHT22;400;53.550;9.932;2022-07-23T13:59:01;20.70;99.90
837;DHT22;400;53.550;9.932;2022-07-23T14:01:30;20.60;99.90
837;DHT22;400;53.550;9.932;2022-07-23T14:04:01;20.50;99.90
837;DHT22;400;53.550;9.932;2022-07-23T14:06:33;20.40;99.90
837;DHT22;400;53.550;9.932;2022-07-23T14:09:09;20.20;99.90
837;DHT22;400;53.550;9.932;2022-07-23T14:11:39;20.20;99.90
837;DHT22;400;53.550;9.932;2022-07-23T14:14:06;20.00;99.90
837;DHT22;400;53.550;9.932;2022-07-23T14:16:33;20.20;99.90
837;DHT22;400;53.550;9.932;2022-07-23T14:19:00;20.30;99.90
837;DHT22;400;53.550;9.932;2022-07-23T14:21:30;20.40;99.90
837;DHT22;400;53.550;9.932;2022-07-23T14:24:00;20.20;99.90
837;DHT22;400;53.550;9.932;2022-07-23T14:26:37;20.30;99.90
837;DHT22;400;53.550;9.932;2022-07-23T14:29:07;20.40;99.90
837;DHT22;400;53.550;9.932;2022-07-23T14:31:34;20.60;99.90
837;DHT22;400;53.550;9.932;2022-07-23T14:34:03;20.50;99.90
837;DHT22;400;53.550;9.932;2022-07-23T14:36:31;20.60;99.90
837;DHT22;400;53.550;9.932;2022-07-23T14:38:58;20.40;99.90
837;DHT22;400;53.550;9.932;2022-07-23T14:41:27;20.30;99.90
837;DHT22;400;53.550;9.932;2022-07-23T14:44:01;20.40;99.90
837;DHT22;400;53.550;9.932;2022-07-23T14:46:32;20.40;99.90
837;DHT22;400;53.550;9.932;2022-07-23T14:49:01;20.30;99.90
837;DHT22;400;53.550;9.932;2022-07-23T14:51:28;20.30;99.90
837;DHT22;400;53.550;9.932;2022-07-23T14:53:55;20.50;99.90
837;DHT22;400;53.550;9.932;2022-07-23T14:56:22;20.30;99.90
837;DHT22;400;53.550;9.932;2022-07-23T14:58:49;20.10;99.90
837;DHT22;400;53.550;9.932;2022-07-23T15:01:16;20.20;99.90
837;DHT22;400;53.550;9.932;2022-07-23T15:03:47;20.30;99.90
837;DHT22;400;53.550;9.932;2022-07-23T15:06:17;20.20;99.90
837;DHT22;400;53.550;9.932;2022-07-23T15:08:44;20.20;99.90
837;DHT22;400;53.550;9.932;2022-07-23T15:11:11;20.10;99.90
837;DHT22;400;53.550;9.932;2022-07-23T15:13:39;20.10;99.90
837;DHT22;400;53.550;9.932;2022-07-23T15:16:07;20.10;99.90
837;DHT22;400;53.550;9.932;2022-07-23T15:18:34;20.10;99.90
837;DHT22;400;53.550;9.932;2022-07-23T15:21:03;20.10;99.90
837;DHT22;400;53.550;9.932;2022-07-23T15:23:30;20.10;99.90
837;DHT22;400;53.550;9.932;2022-07-23T15:25:58;20.20;99.90
837;DHT22;400;53.550;9.932;2022-07-23T15:28:27;20.20;99.90
837;DHT22;400;53.550;9.932;2022-07-23T15:30:54;20.10;99.90
837;DHT22;400;53.550;9.932;2022-07-23T15:33:21;20.20;99.90
837;DHT22;400;53.550;9.932;2022-07-23T15:35:49;20.30;99.90
837;DHT22;400;53.550;9.932;2022-07-23T15:38:19;20.30;99.90
837;DHT22;400;53.550;9.932;2022-07-23T15:40:46;20.40;99.90
837;DHT22;400;53.550;9.932;2022-07-23T15:43:13;20.70;99.90
837;DHT22;400;53.550;9.932;2022-07-23T15:45:40;20.60;99.90
837;DHT22;400;53.550;9.932;2022-07-23T15:48:08;20.50;99.90
837;DHT22;400;53.550;9.932;2022-07-23T15:50:42;20.40;99.90
837;DHT22;400;53.550;9.932;2022-07-23T15:53:14;20.60;99.90
837;DHT22;400;53.550;9.932;2022-07-23T15:55:45;20.50;99.90
837;DHT22;400;53.550;9.932;2022-07-23T15:58:13;20.50;99.90
837;DHT22;400;53.550;9.932;2022-07-23T16:00:40;20.60;99.90
837;DHT22;400;53.550;9.932;2022-07-23T16:03:08;20.60;99.90
837;DHT22;400;53.550;9.932;2022-07-23T16:05:37;20.50;99.90
837;DHT22;400;53.550;9.932;2022-07-23T16:08:06;20.60;99.90
837;DHT22;400;53.550;9.932;2022-07-23T16:10:33;20.50;99.90
837;DHT22;400;53.550;9.932;2022-07-23T16:13:02;20.40;99.90
837;DHT22;400;53.550;9.932;2022-07-23T16:15:31;20.70;99.90
837;DHT22;400;53.550;9.932;2022-07-23T16:18:01;21.50;99.90
837;DHT22;400;53.550;9.932;2022-07-23T16:20:30;22.30;99.90
837;DHT22;400;53.550;9.932;2022-07-23T16:23:00;22.60;99.90
837;DHT22;400;53.550;9.932;2022-07-23T16:25:30;23.10;99.90
837;DHT22;400;53.550;9.932;2022-07-23T16:28:05;24.00;99.40
837;DHT22;400;53.550;9.932;2022-07-23T16:30:36;24.80;98.00
837;DHT22;400;53.550;9.932;2022-07-23T16:33:06;23.60;98.30
837;DHT22;400;53.550;9.932;2022-07-23T16:35:34;23.70;98.80
837;DHT22;400;53.550;9.932;2022-07-23T16:38:01;23.20;98.70
837;DHT22;400;53.550;9.932;2022-07-23T16:40:28;23.50;99.50
837;DHT22;400;53.550;9.932;2022-07-23T16:42:57;24.60;98.10
837;DHT22;400;53.550;9.932;2022-07-23T16:45:33;25.20;96.60
837;DHT22;400;53.550;9.932;2022-07-23T16:48:02;26.10;94.50
837;DHT22;400;53.550;9.932;2022-07-23T16:50:29;26.00;93.90
837;DHT22;400;53.550;9.932;2022-07-23T16:52:55;26.60;93.00
837;DHT22;400;53.550;9.932;2022-07-23T16:55:23;26.50;91.80
837;DHT22;400;53.550;9.932;2022-07-23T16:57:50;26.80;91.80